Forside
METAR-TAF:

METAR-TAF

Lufthavne :

Vladivostok Internationale Lufthavn

Vladivostok, Rusland

Breddekreds: 43-07N, længdekreds: 131-56E, højde: 184 m

Aktuelle vejr

Denne rapport blev lavet for 16 minutter siden, kl. 02:30 UTC
Vind 14 kt fra sydvest
Temperatur 19°C
Fugtighed 68%
Tryk 1012 hPa
Sigt 10 km eller mere
Spredte skyer i en højde af 1500 ft

METAR: UHWW 070230Z 23007MPS 9999 SCT015 19/13 Q1012 R25L/0///70 NOSIG RMK QFE757

Tid: 12:46 (02:46 UTC)

Vejrudsigter

Denne rapport blev lavet for 46 minutter siden, kl. 02:00 UTC
Foreløbig gælder fra 07 på 03 UTC til 08 på 03 UTC
Vind 6 kt fra sydsydvest
Sigt 10 km eller mere
Brudte skyer i en højde af 2500 ft
Midlertidig
fra 07 på 03 UTC til 07 på 11 UTC
Vind 23 kt fra sydsydvest
Sigt: 5000 m
Brudte skyer i en højde af 1700 ft, Cumulonimbus.
let regnbyger
ændring
fra 07 på 12 UTC til 07 på 15 UTC
Vind 6 kt fra sydsydøst

TAF: UHWW 070200Z 0703/0803 20003MPS 9999 BKN025 TEMPO 0703/0711 20012MPS 5000 -SHRA BKN017CB BECMG 0712/0715 16003MPS

Vejrobservationer og prognoser fra mere end 4000 lufthavne (METAR og TAF).

De gule og røde prikker repræsenterer de meteorologiske stationer.

Flyt musen over at se navnet på stationen.

Så klik over at se vejr observationer og prognoser.

At skifte det kort: Klik på de grønne knapper med et sort kors for at zoome ind; på den grønne knap med en bindestreg for at zoome ud; eller på de grønne pile for tilstødende kort.


METAR-TAF: